Time;durP1;ratioP1;P1;durP2;ratioP2;P2;SDS_P1;SDS_P2;PMS_P1;PMS_P2;Temp;Humidity;BMP_temperature;BMP_pressure;BME280_temperature;BME280_humidity;BME280_pressure;Samples;Min_cycle;Max_cycle;Signal;HPM_P1;HPM_P2
2022/11/02 00:00:07;;;;;;;;;;;;;;;;;;5094587;28;19908;-66
2022/11/02 00:02:33;;;;;;;;;;;;;;;;;;5094226;28;20005;-66
2022/11/02 00:04:59;;;;;;;;;;;;;;;;;;5094766;28;19908;-66
2022/11/02 00:07:25;;;;;;;;;;;;;;;;;;5094521;28;20009;-66
2022/11/02 00:09:51;;;;;;;;;;;;;;;;;;5094066;28;19908;-66
2022/11/02 00:17:46;;;;;;;;;;;;;;;;;;5094327;28;19954;-66
2022/11/02 00:20:11;;;;;;;;;;;;;;;;;;5095017;28;19911;-67
2022/11/02 00:22:37;;;;;;;;;;;;;;;;;;5075625;28;19909;-66
2022/11/02 00:25:03;;;;;;;;;;;;;;;;;;5076163;28;19915;-66
2022/11/02 00:27:30;;;;;;;;;;;;;;;;;;5093940;28;19912;-67
2022/11/02 00:29:56;;;;;;;;;;;;;;;;;;5093760;28;19943;-67
2022/11/02 00:32:22;;;;;;;;;;;;;;;;;;5094064;28;20364;-67
2022/11/02 00:34:47;;;;;;;;;;;;;;;;;;5094264;28;20322;-67
2022/11/02 00:37:13;;;;;;;;;;;;;;;;;;5093935;28;20325;-66
2022/11/02 00:39:39;;;;;;;;;;;;;;;;;;5094048;28;20288;-66
2022/11/02 00:42:05;;;;;;;;;;;;;;;;;;5075808;28;19991;-66
2022/11/02 00:44:31;;;;;;;;;;;;;;;;;;5093543;28;20050;-66
2022/11/02 00:46:57;;;;;;;;;;;;;;;;;;5093897;28;19908;-66
2022/11/02 00:49:23;;;;;;;;;;;;;;;;;;5094164;28;20057;-67
2022/11/02 00:51:49;;;;;;;;;;;;;;;;;;5093525;28;19991;-66
2022/11/02 00:54:15;;;;;;;;;;;;;;;;;;5093678;28;19920;-66
2022/11/02 00:56:41;;;;;;;;;;;;;;;;;;5093929;28;19908;-66
2022/11/02 00:59:07;;;;;;;;;;;;;;;;;;5093456;28;19934;-66
2022/11/02 01:01:33;;;;;;;;;;;;;;;;;;5075679;28;19908;-66
2022/11/02 01:03:59;;;;;;;;;;;;;;;;;;5093392;28;20400;-66
2022/11/02 01:06:25;;;;;;;;;;;;;;;;;;5093712;28;20425;-66
2022/11/02 01:08:51;;;;;;;;;;;;;;;;;;5093761;28;20280;-66
2022/11/02 01:11:17;;;;;;;;;;;;;;;;;;5093228;28;19908;-66
2022/11/02 01:13:43;;;;;;;;;;;;;;;;;;5094257;28;19974;-66
2022/11/02 01:16:09;;;;;;;;;;;;;;;;;;5093920;28;19992;-66
2022/11/02 01:18:35;;;;;;;;;;;;;;;;;;5093192;28;19908;-66
2022/11/02 01:21:00;;;;;;;;;;;;;;;;;;5093612;28;19915;-67
2022/11/02 01:23:26;;;;;;;;;;;;;;;;;;5093641;28;19908;-67
2022/11/02 01:25:52;;;;;;;;;;;;;;;;;;5093151;28;19912;-66
2022/11/02 01:28:18;;;;;;;;;;;;;;;;;;5094149;28;20403;-67
2022/11/02 01:30:44;;;;;;;;;;;;;;;;;;5093554;28;20374;-67
2022/11/02 01:35:55;;;;;;;;;;;;;;;;;;5093549;28;20485;-66
2022/11/02 01:38:21;;;;;;;;;;;;;;;;;;5093380;28;20006;-66
2022/11/02 01:40:46;;;;;;;;;;;;;;;;;;5095677;28;19915;-66
2022/11/02 01:43:12;;;;;;;;;;;;;;;;;;5079044;28;20381;-67
2022/11/02 01:45:38;;;;;;;;;;;;;;;;;;5097762;28;20371;-66
2022/11/02 01:48:04;;;;;;;;;;;;;;;;;;5096787;28;19931;-67
2022/11/02 01:50:30;;;;;;;;;;;;;;;;;;5097105;28;19908;-67
2022/11/02 01:52:56;;;;;;;;;;;;;;;;;;5075258;28;19926;-67
2022/11/02 01:55:22;;;;;;;;;;;;;;;;;;5076421;28;19912;-67
2022/11/02 01:57:48;;;;;;;;;;;;;;;;;;5076616;28;19943;-67
2022/11/02 02:00:14;;;;;;;;;;;;;;;;;;5076328;28;19908;-66
2022/11/02 02:02:40;;;;;;;;;;;;;;;;;;5076555;28;20373;-66
2022/11/02 02:05:06;;;;;;;;;;;;;;;;;;5076577;28;20007;-67
2022/11/02 02:07:32;;;;;;;;;;;;;;;;;;5076453;28;19966;-67
2022/11/02 02:09:58;;;;;;;;;;;;;;;;;;5076494;28;19915;-67
2022/11/02 02:12:24;;;;;;;;;;;;;;;;;;5076448;28;20376;-67
2022/11/02 02:20:19;;;;;;;;;;;;;;;;;;5076577;28;20013;-66
2022/11/02 02:22:45;;;;;;;;;;;;;;;;;;5075859;28;19916;-66
2022/11/02 02:25:11;;;;;;;;;;;;;;;;;;5076219;28;19908;-67
2022/11/02 02:27:37;;;;;;;;;;;;;;;;;;5076237;28;19915;-67
2022/11/02 02:30:03;;;;;;;;;;;;;;;;;;5075786;28;19913;-67
2022/11/02 02:32:28;;;;;;;;;;;;;;;;;;5076012;28;19995;-67
2022/11/02 02:34:54;;;;;;;;;;;;;;;;;;5076033;28;20046;-67
2022/11/02 02:37:20;;;;;;;;;;;;;;;;;;5075680;28;19909;-66
2022/11/02 02:39:46;;;;;;;;;;;;;;;;;;5075988;28;19909;-66
2022/11/02 02:42:12;;;;;;;;;;;;;;;;;;5075995;28;19966;-67
2022/11/02 02:44:38;;;;;;;;;;;;;;;;;;5075452;28;20368;-67
2022/11/02 02:47:04;;;;;;;;;;;;;;;;;;5074593;28;20275;-66
2022/11/02 02:49:30;;;;;;;;;;;;;;;;;;5074135;28;19912;-67
2022/11/02 02:51:56;;;;;;;;;;;;;;;;;;5075661;28;19989;-67
2022/11/02 02:54:22;;;;;;;;;;;;;;;;;;5093323;28;19981;-67
2022/11/02 02:56:48;;;;;;;;;;;;;;;;;;5095410;28;19909;-67
2022/11/02 02:59:14;;;;;;;;;;;;;;;;;;5096220;28;20387;-67
2022/11/02 03:01:40;;;;;;;;;;;;;;;;;;5095793;28;20441;-67
2022/11/02 03:04:06;;;;;;;;;;;;;;;;;;5095348;28;19908;-67
2022/11/02 03:06:32;;;;;;;;;;;;;;;;;;5095657;28;19954;-67
2022/11/02 03:08:57;;;;;;;;;;;;;;;;;;5077483;28;19915;-67
2022/11/02 03:11:23;;;;;;;;;;;;;;;;;;5095176;28;19908;-67
2022/11/02 03:13:49;;;;;;;;;;;;;;;;;;5095492;28;19961;-67
2022/11/02 03:16:15;;;;;;;;;;;;;;;;;;5095531;28;19915;-67
2022/11/02 03:18:41;;;;;;;;;;;;;;;;;;5095075;28;19915;-66
2022/11/02 03:21:07;;;;;;;;;;;;;;;;;;5095392;28;19998;-67
2022/11/02 03:23:33;;;;;;;;;;;;;;;;;;5077175;28;19908;-67
2022/11/02 03:25:59;;;;;;;;;;;;;;;;;;5076999;28;19915;-67
2022/11/02 03:28:25;;;;;;;;;;;;;;;;;;5095478;28;19908;-67
2022/11/02 03:30:51;;;;;;;;;;;;;;;;;;5095328;28;19908;-67
2022/11/02 03:33:17;;;;;;;;;;;;;;;;;;5094753;28;19947;-67
2022/11/02 03:35:43;;;;;;;;;;;;;;;;;;5095193;28;19908;-67
2022/11/02 03:38:09;;;;;;;;;;;;;;;;;;5095160;28;19965;-67
2022/11/02 03:40:35;;;;;;;;;;;;;;;;;;5094754;28;19909;-66
2022/11/02 03:43:01;;;;;;;;;;;;;;;;;;5095027;28;19915;-67
2022/11/02 03:45:27;;;;;;;;;;;;;;;;;;5095092;28;19953;-67
2022/11/02 03:47:53;;;;;;;;;;;;;;;;;;5076369;28;19915;-67
2022/11/02 03:50:19;;;;;;;;;;;;;;;;;;5095398;28;19915;-67
2022/11/02 03:52:45;;;;;;;;;;;;;;;;;;5094290;28;19999;-67
2022/11/02 03:55:11;;;;;;;;;;;;;;;;;;5094840;28;20007;-67
2022/11/02 03:57:37;;;;;;;;;;;;;;;;;;5094942;28;20390;-67
2022/11/02 04:00:03;;;;;;;;;;;;;;;;;;5076141;28;19908;-67
2022/11/02 04:02:29;;;;;;;;;;;;;;;;;;5076014;28;19961;-67
2022/11/02 04:04:55;;;;;;;;;;;;;;;;;;5094747;28;19908;-67
2022/11/02 04:07:21;;;;;;;;;;;;;;;;;;5094222;28;20004;-67
2022/11/02 04:09:47;;;;;;;;;;;;;;;;;;5094620;28;19908;-67
2022/11/02 04:15:00;;;;;;;;;;;;;;;;;;5094152;28;19961;-67
2022/11/02 04:20:10;;;;;;;;;;;;;;;;;;5094486;28;19999;-67
2022/11/02 04:25:21;;;;;;;;;;;;;;;;;;5094382;28;19930;-67
2022/11/02 04:27:47;;;;;;;;;;;;;;;;;;5094050;28;19908;-67
2022/11/02 04:30:13;;;;;;;;;;;;;;;;;;5076138;28;19915;-67
2022/11/02 04:35:23;;;;;;;;;;;;;;;;;;5093908;28;20386;-67
2022/11/02 04:40:34;;;;;;;;;;;;;;;;;;5094177;28;20004;-67
2022/11/02 04:43:00;;;;;;;;;;;;;;;;;;5093640;28;19998;-67
2022/11/02 04:45:26;;;;;;;;;;;;;;;;;;5094002;28;19946;-66
2022/11/02 04:47:52;;;;;;;;;;;;;;;;;;5094176;28;19918;-67
2022/11/02 04:50:18;;;;;;;;;;;;;;;;;;5093530;28;19915;-67
2022/11/02 04:52:44;;;;;;;;;;;;;;;;;;5093745;28;19920;-66
2022/11/02 04:55:10;;;;;;;;;;;;;;;;;;5093930;28;20293;-67
2022/11/02 04:57:36;;;;;;;;;;;;;;;;;;5093549;28;19936;-67
2022/11/02 05:00:02;;;;;;;;;;;;;;;;;;5093880;28;19915;-67
2022/11/02 05:02:28;;;;;;;;;;;;;;;;;;5093923;28;20268;-67
2022/11/02 05:04:54;;;;;;;;;;;;;;;;;;5093571;28;19908;-67
2022/11/02 05:07:20;;;;;;;;;;;;;;;;;;5075722;28;19909;-67
2022/11/02 05:09:46;;;;;;;;;;;;;;;;;;5093988;28;19953;-67
2022/11/02 05:12:12;;;;;;;;;;;;;;;;;;5093303;28;19943;-66
2022/11/02 05:14:38;;;;;;;;;;;;;;;;;;5094014;28;20353;-67
2022/11/02 05:17:03;;;;;;;;;;;;;;;;;;5095366;28;19977;-66
2022/11/02 05:19:29;;;;;;;;;;;;;;;;;;5077718;28;19916;-66
2022/11/02 05:21:55;;;;;;;;;;;;;;;;;;5098219;28;19952;-66
2022/11/02 05:24:21;;;;;;;;;;;;;;;;;;5097427;28;20246;-67
2022/11/02 05:26:47;;;;;;;;;;;;;;;;;;5097691;28;19908;-67
2022/11/02 05:29:13;;;;;;;;;;;;;;;;;;5096010;28;20317;-67
2022/11/02 05:31:39;;;;;;;;;;;;;;;;;;5096177;28;19938;-67
2022/11/02 05:34:05;;;;;;;;;;;;;;;;;;5095348;28;20288;-67
2022/11/02 05:36:31;;;;;;;;;;;;;;;;;;5095248;28;19908;-66
2022/11/02 05:38:57;;;;;;;;;;;;;;;;;;5095047;28;20009;-67
2022/11/02 05:41:23;;;;;;;;;;;;;;;;;;5095389;28;19908;-67
2022/11/02 05:43:49;;;;;;;;;;;;;;;;;;5095193;28;20058;-67
2022/11/02 05:46:15;;;;;;;;;;;;;;;;;;5095135;28;19909;-67
2022/11/02 05:48:41;;;;;;;;;;;;;;;;;;5097015;28;19908;-67
2022/11/02 05:51:07;;;;;;;;;;;;;;;;;;5097473;28;19908;-67
2022/11/02 05:53:36;;;;;;;;;;;;;;;;;;5078316;28;20022;-67
2022/11/02 05:56:02;;;;;;;;;;;;;;;;;;5097535;28;19908;-67
2022/11/02 05:58:28;;;;;;;;;;;;;;;;;;5097339;28;20375;-67
2022/11/02 06:00:54;;;;;;;;;;;;;;;;;;5096538;28;19912;-66
2022/11/02 06:03:20;;;;;;;;;;;;;;;;;;5078805;28;19935;-66
2022/11/02 06:05:45;;;;;;;;;;;;;;;;;;5097227;28;20359;-67
2022/11/02 06:08:11;;;;;;;;;;;;;;;;;;5093709;28;20280;-68
2022/11/02 06:10:41;;;;;;;;;;;;;;;;;;5079472;28;20269;-68
2022/11/02 06:13:07;;;;;;;;;;;;;;;;;;5096090;28;19920;-68
2022/11/02 06:15:33;;;;;;;;;;;;;;;;;;5089767;28;19916;-67
2022/11/02 06:17:59;;;;;;;;;;;;;;;;;;5095310;28;19908;-68
2022/11/02 06:20:25;;;;;;;;;;;;;;;;;;5087921;28;19919;-69
2022/11/02 06:22:51;;;;;;;;;;;;;;;;;;5093338;28;20296;-67
2022/11/02 06:25:17;;;;;;;;;;;;;;;;;;5083003;28;19974;-68
2022/11/02 06:27:42;;;;;;;;;;;;;;;;;;5086645;28;19916;-67
2022/11/02 06:30:08;;;;;;;;;;;;;;;;;;5091601;28;19961;-68
2022/11/02 06:32:34;;;;;;;;;;;;;;;;;;5073776;28;19908;-67
2022/11/02 06:35:00;;;;;;;;;;;;;;;;;;5072556;28;19916;-64
2022/11/02 06:37:26;;;;;;;;;;;;;;;;;;5091268;28;20608;-66
2022/11/02 06:39:52;;;;;;;;;;;;;;;;;;5089247;28;19920;-65
2022/11/02 06:42:18;;;;;;;;;;;;;;;;;;5092990;28;19908;-65
2022/11/02 06:44:44;;;;;;;;;;;;;;;;;;5072571;28;19908;-66
2022/11/02 06:47:10;;;;;;;;;;;;;;;;;;5088098;28;19919;-67
2022/11/02 06:49:36;;;;;;;;;;;;;;;;;;5092089;28;19908;-67
2022/11/02 06:52:02;;;;;;;;;;;;;;;;;;5085541;28;19963;-65
2022/11/02 06:54:28;;;;;;;;;;;;;;;;;;5093399;28;19965;-65
2022/11/02 06:56:54;;;;;;;;;;;;;;;;;;5076184;28;19994;-66
2022/11/02 06:59:20;;;;;;;;;;;;;;;;;;5094390;28;19908;-68
2022/11/02 07:01:51;;;;;;;;;;;;;;;;;;5075706;28;20348;-69
2022/11/02 07:04:17;;;;;;;;;;;;;;;;;;5093582;28;19946;-66
2022/11/02 07:06:43;;;;;;;;;;;;;;;;;;5073650;28;20355;-68
2022/11/02 07:09:09;;;;;;;;;;;;;;;;;;5073733;28;19908;-69
2022/11/02 07:11:34;;;;;;;;;;;;;;;;;;5073798;28;20005;-68
2022/11/02 07:14:00;;;;;;;;;;;;;;;;;;5076805;28;19974;-66
2022/11/02 07:16:26;;;;;;;;;;;;;;;;;;5092913;28;19908;-65
2022/11/02 07:18:52;;;;;;;;;;;;;;;;;;5090602;28;20045;-67
2022/11/02 07:21:18;;;;;;;;;;;;;;;;;;5094521;28;19915;-65
2022/11/02 07:23:44;;;;;;;;;;;;;;;;;;5092335;28;19908;-64
2022/11/02 07:26:10;;;;;;;;;;;;;;;;;;5091124;28;20008;-64
2022/11/02 07:29:07;;;;;;;;;;;;;;;;;;5129250;27;19931;-66
2022/11/02 07:31:33;;;;;;;;;;;;;;;;;;5129367;28;20323;-65
2022/11/02 07:33:59;;;;;;;;;;;;;;;;;;5128457;28;19908;-65
2022/11/02 07:36:24;;;;;;;;;;;;;;;;;;5127396;28;19962;-64
2022/11/02 07:38:50;;;;;;;;;;;;;;;;;;5130286;28;19912;-63
2022/11/02 07:41:16;;;;;;;;;;;;;;;;;;5127989;28;20378;-64
2022/11/02 07:43:42;;;;;;;;;;;;;;;;;;5128953;28;20283;-66
2022/11/02 07:46:09;;;;;;;;;;;;;;;;;;5129150;28;19918;-64
2022/11/02 07:48:35;;;;;;;;;;;;;;;;;;5129538;27;20322;-64
2022/11/02 07:51:01;;;;;;;;;;;;;;;;;;5121229;28;19908;-64
2022/11/02 07:53:26;;;;;;;;;;;;;;;;;;5103023;28;20407;-66
2022/11/02 07:55:53;;;;;;;;;;;;;;;;;;5104261;28;19916;-65
2022/11/02 07:58:19;;;;;;;;;;;;;;;;;;5111109;28;20491;-67
2022/11/02 08:00:45;;;;;;;;;;;;;;;;;;5116271;28;19970;-68
2022/11/02 08:03:11;;;;;;;;;;;;;;;;;;5107611;28;20422;-67
2022/11/02 08:05:37;;;;;;;;;;;;;;;;;;5110257;28;19934;-66
2022/11/02 08:08:03;;;;;;;;;;;;;;;;;;5112836;28;20101;-66
2022/11/02 08:10:29;;;;;;;;;;;;;;;;;;5105533;28;20383;-67
2022/11/02 08:16:30;;;;;;;;;;;;;;;;;;5110623;27;20387;-70
2022/11/02 08:18:58;;;;;;;;;;;;;;;;;;5110298;28;19912;-65
2022/11/02 08:21:24;;;;;;;;;;;;;;;;;;5109855;28;19971;-65
2022/11/02 08:23:50;;;;;;;;;;;;;;;;;;5104598;28;19908;-66
2022/11/02 08:26:15;;;;;;;;;;;;;;;;;;5077105;27;20023;-66
2022/11/02 08:28:41;;;;;;;;;;;;;;;;;;5024758;28;19932;-66
2022/11/02 08:31:07;;;;;;;;;;;;;;;;;;5026037;28;20380;-66
2022/11/02 08:33:33;;;;;;;;;;;;;;;;;;5025053;28;19909;-65
2022/11/02 08:35:59;;;;;;;;;;;;;;;;;;5026743;28;19918;-65
2022/11/02 08:40:12;;;;;;;;;;;;;;;;;;5108666;27;19916;-65
2022/11/02 08:42:38;;;;;;;;;;;;;;;;;;5109214;28;19918;-65
2022/11/02 08:45:04;;;;;;;;;;;;;;;;;;5105673;28;19908;-65
2022/11/02 08:47:30;;;;;;;;;;;;;;;;;;5121147;28;19961;-65
2022/11/02 08:51:52;;;;;;;;;;;;;;;;;;5124388;27;20309;-64
2022/11/02 08:54:30;;;;;;;;;;;;;;;;;;5089798;27;20376;-65
2022/11/02 08:56:56;;;;;;;;;;;;;;;;;;5088848;28;19919;-66
2022/11/02 08:59:21;;;;;;;;;;;;;;;;;;5087332;28;19924;-66
2022/11/02 09:06:03;;;;;;;;;;;;;;;;;;5084420;27;19912;-68
2022/11/02 09:08:29;;;;;;;;;;;;;;;;;;5085221;28;20434;-66
2022/11/02 09:10:55;;;;;;;;;;;;;;;;;;5085598;28;19908;-67
2022/11/02 09:13:24;;;;;;;;;;;;;;;;;;5086173;28;20322;-66
2022/11/02 09:16:41;;;;;;;;;;;;;;;;;;5103338;27;19926;-66
2022/11/02 09:21:43;;;;;;;;;;;;;;;;;;5087159;27;19916;-66
2022/11/02 09:24:08;;;;;;;;;;;;;;;;;;5086815;28;19918;-66
2022/11/02 09:26:34;;;;;;;;;;;;;;;;;;5086644;28;20518;-66
2022/11/02 09:29:00;;;;;;;;;;;;;;;;;;5079690;28;20277;-66
2022/11/02 09:31:53;;;;;;;;;;;;;;;;;;5106881;27;19913;-66
2022/11/02 09:34:19;;;;;;;;;;;;;;;;;;5107708;28;19922;-66
2022/11/02 09:36:45;;;;;;;;;;;;;;;;;;5108604;28;19912;-67
2022/11/02 09:39:11;;;;;;;;;;;;;;;;;;5108426;28;20367;-67
2022/11/02 09:41:37;;;;;;;;;;;;;;;;;;5108219;28;20260;-68
2022/11/02 09:44:03;;;;;;;;;;;;;;;;;;5109733;28;19912;-69
2022/11/02 09:46:29;;;;;;;;;;;;;;;;;;5098563;28;19922;-66
2022/11/02 09:48:54;;;;;;;;;;;;;;;;;;5108146;28;20012;-65
2022/11/02 09:51:20;;;;;;;;;;;;;;;;;;5105410;28;20387;-66
2022/11/02 09:53:47;;;;;;;;;;;;;;;;;;5121007;28;20465;-67
2022/11/02 09:56:42;;;;;;;;;;;;;;;;;;5088494;28;19919;-66
2022/11/02 09:59:08;;;;;;;;;;;;;;;;;;5087615;28;19913;-67
2022/11/02 10:01:34;;;;;;;;;;;;;;;;;;5084347;28;20361;-68
2022/11/02 10:04:00;;;;;;;;;;;;;;;;;;5083735;28;19909;-67
2022/11/02 10:06:26;;;;;;;;;;;;;;;;;;5079247;28;19916;-68
2022/11/02 10:08:52;;;;;;;;;;;;;;;;;;5066956;28;20335;-67
2022/11/02 10:11:18;;;;;;;;;;;;;;;;;;5060685;28;19912;-66
2022/11/02 10:13:44;;;;;;;;;;;;;;;;;;5081135;28;19924;-65
2022/11/02 10:16:10;;;;;;;;;;;;;;;;;;5077145;28;19924;-65
2022/11/02 10:18:36;;;;;;;;;;;;;;;;;;5071466;28;19951;-66
2022/11/02 10:21:02;;;;;;;;;;;;;;;;;;5085626;28;19916;-66
2022/11/02 10:23:28;;;;;;;;;;;;;;;;;;5088517;28;19944;-66
2022/11/02 10:25:54;;;;;;;;;;;;;;;;;;5084823;28;19916;-68
2022/11/02 10:28:20;;;;;;;;;;;;;;;;;;5084690;28;19913;-67
2022/11/02 10:30:46;;;;;;;;;;;;;;;;;;5072416;28;19908;-66
2022/11/02 10:33:12;;;;;;;;;;;;;;;;;;5081058;28;20562;-67
2022/11/02 10:35:38;;;;;;;;;;;;;;;;;;5072587;28;19920;-66
2022/11/02 10:38:04;;;;;;;;;;;;;;;;;;5075160;28;19923;-67
2022/11/02 10:40:30;;;;;;;;;;;;;;;;;;5081417;28;19916;-65
2022/11/02 10:42:57;;;;;;;;;;;;;;;;;;5083689;28;19950;-65
2022/11/02 10:45:23;;;;;;;;;;;;;;;;;;5087565;28;19953;-65
2022/11/02 10:47:49;;;;;;;;;;;;;;;;;;5086861;28;19963;-65
2022/11/02 10:50:20;;;;;;;;;;;;;;;;;;5087312;28;20347;-64
2022/11/02 10:52:46;;;;;;;;;;;;;;;;;;5085138;28;19913;-65
2022/11/02 10:55:13;;;;;;;;;;;;;;;;;;5084086;28;19981;-64
2022/11/02 10:57:39;;;;;;;;;;;;;;;;;;5082986;28;20398;-64
2022/11/02 11:00:06;;;;;;;;;;;;;;;;;;5085374;28;19943;-64
2022/11/02 11:02:32;;;;;;;;;;;;;;;;;;5081259;28;20671;-65
2022/11/02 11:04:57;;;;;;;;;;;;;;;;;;5084233;28;19961;-64
2022/11/02 11:07:26;;;;;;;392.83;253.33;;;;;;;;;;5073515;28;19908;-65
2022/11/02 11:09:53;;;;;;;;;;;;;;;;;;5071405;28;20512;-65
2022/11/02 11:12:25;;;;;;;342.40;244.13;;;;;;;;;;5063247;28;20391;-65
2022/11/02 11:14:51;;;;;;;;;;;;;;;;;;5061355;28;20025;-65
2022/11/02 11:17:17;;;;;;;;;;;;;;;;;;5065137;28;20402;-66
2022/11/02 11:19:43;;;;;;;;;;;;;;;;;;5061243;28;20689;-66
2022/11/02 11:22:09;;;;;;;;;;;;;;;;;;5063738;28;20356;-66
2022/11/02 11:24:35;;;;;;;;;;;;;;;;;;5070755;28;20363;-66
2022/11/02 11:29:52;;;;;;;;;;;;;;;;;;5050594;28;19919;-65
2022/11/02 11:32:18;;;;;;;;;;;;;;;;;;5071810;28;19908;-65
2022/11/02 11:34:45;;;;;;;;;;;;;;;;;;5069949;28;19987;-67
2022/11/02 11:37:13;;;;;;;;;;;;;;;;;;5065813;28;20003;-66
2022/11/02 11:39:39;;;;;;;;;;;;;;;;;;5068430;28;19959;-65
2022/11/02 11:42:05;;;;;;;;;;;;;;;;;;5069134;28;19908;-65
2022/11/02 11:44:31;;;;;;;;;;;;;;;;;;5065228;28;19919;-64
2022/11/02 11:46:57;;;;;;;;;;;;;;;;;;5070125;28;19909;-65
2022/11/02 11:49:23;;;;;;;;;;;;;;;;;;5053648;28;19904;-66
2022/11/02 11:51:49;;;;;;;;;;;;;;;;;;5052226;28;20015;-66
2022/11/02 11:54:15;;;;;;;;;;;;;;;;;;5067697;28;19904;-67
2022/11/02 11:56:41;;;;;;;;;;;;;;;;;;5068284;28;19918;-66
2022/11/02 11:59:07;;;;;;;;;;;;;;;;;;5086852;28;19920;-66
2022/11/02 12:01:33;;;;;;;;;;;;;;;;;;5089614;28;20556;-66
2022/11/02 12:04:00;;;;;;;;;;;;;;;;;;5089576;28;20391;-65
2022/11/02 12:06:26;;;;;;;;;;;;;;;;;;5088825;28;20002;-68
2022/11/02 12:08:52;;;;;;;;;;;;;;;;;;5087849;28;20003;-66
2022/11/02 12:11:17;;;;;;;;;;;;;;;;;;5065610;28;19907;-65
2022/11/02 12:13:43;;;;;;;;;;;;;;;;;;5068509;28;19908;-66
2022/11/02 12:16:09;;;;;;;;;;;;;;;;;;5086559;28;20314;-66
2022/11/02 12:18:35;;;;;;;;;;;;;;;;;;5088550;28;19908;-66
2022/11/02 12:21:01;;;;;;;;;;;;;;;;;;5090034;28;20364;-66
2022/11/02 12:23:27;;;;;;;;;;;;;;;;;;5071841;28;20327;-66
2022/11/02 12:25:53;;;;;;;;;;;;;;;;;;5091773;28;20292;-66
2022/11/02 12:28:19;;;;;;;;;;;;;;;;;;5092584;28;19915;-65
2022/11/02 12:30:45;;;;;;;;;;;;;;;;;;5073248;28;19912;-65
2022/11/02 12:33:11;;;;;;;;;;;;;;;;;;5092009;28;19977;-66
2022/11/02 12:35:37;;;;;;;;;;;;;;;;;;5083789;28;19912;-66
2022/11/02 12:38:03;;;;;;;;;;;;;;;;;;5089714;28;19955;-66
2022/11/02 12:40:29;;;;;;;;;;;;;;;;;;5083684;28;19915;-66
2022/11/02 12:42:55;;;;;;;;;;;;;;;;;;5079398;28;20387;-64
2022/11/02 12:45:21;;;;;;;;;;;;;;;;;;5068664;28;19911;-64
2022/11/02 12:47:47;;;;;;;;;;;;;;;;;;5069726;28;19908;-64
2022/11/02 12:50:13;;;;;;;;;;;;;;;;;;5060200;28;19907;-64
2022/11/02 12:52:39;;;;;;;;;;;;;;;;;;5070407;28;19908;-64
2022/11/02 12:55:05;;;;;;;;;;;;;;;;;;5089926;28;19923;-64
2022/11/02 12:57:31;;;;;;;;;;;;;;;;;;5091447;28;19912;-64
2022/11/02 12:59:57;;;;;;;;;;;;;;;;;;5090812;28;19911;-65
2022/11/02 13:02:23;;;;;;;;;;;;;;;;;;5067196;28;19904;-65
2022/11/02 13:04:49;;;;;;;;;;;;;;;;;;5091250;28;19904;-64
2022/11/02 13:07:15;;;;;;;;;;;;;;;;;;5072199;28;19911;-63
2022/11/02 13:09:41;;;;;;;;;;;;;;;;;;5092408;28;19908;-64
2022/11/02 13:12:08;;;;;;;;;;;;;;;;;;5090051;28;19904;-63
2022/11/02 13:14:34;;;;;;;;;;;;;;;;;;5070791;28;19916;-64
2022/11/02 13:17:00;;;;;;;;;;;;;;;;;;5089756;28;19904;-63
2022/11/02 13:19:26;;;;;;;;;;;;;;;;;;5090203;28;20473;-64
2022/11/02 13:21:55;;;;;;;;;;;;;;;;;;5091319;28;19911;-64
2022/11/02 13:24:21;;;;;;;;;;;;;;;;;;5073099;28;20263;-64
2022/11/02 13:26:47;;;;;;;;;;;;;;;;;;5086177;28;20021;-64
2022/11/02 13:29:13;;;;;;;;;;;;;;;;;;5073208;28;20282;-66
2022/11/02 13:31:39;;;;;;;;;;;;;;;;;;5090891;28;20324;-64
2022/11/02 13:34:05;;;;;;;;;;;;;;;;;;5089508;28;19910;-64
2022/11/02 13:36:31;;;;;;;;;;;;;;;;;;5073310;28;19916;-64
2022/11/02 13:38:57;;;;;;;;;;;;;;;;;;5091380;28;19946;-65
2022/11/02 13:41:23;;;;;;;;;;;;;;;;;;5074219;28;19904;-65
2022/11/02 13:43:49;;;;;;;;;;;;;;;;;;5090298;28;20041;-66
2022/11/02 13:46:15;;;;;;;;;;;;;;;;;;5091582;28;19912;-67
2022/11/02 13:48:41;;;;;;;;;;;;;;;;;;5091613;28;20105;-65
2022/11/02 13:51:07;;;;;;;;;;;;;;;;;;5091659;28;20002;-65
2022/11/02 13:53:33;;;;;;;;;;;;;;;;;;5090663;28;20232;-65
2022/11/02 13:55:59;;;;;;;;;;;;;;;;;;5092748;28;19923;-66
2022/11/02 13:58:25;;;;;;;;;;;;;;;;;;5090656;28;19930;-66
2022/11/02 14:00:51;;;;;;;;;;;;;;;;;;5091647;28;19904;-66
2022/11/02 14:03:17;;;;;;;;;;;;;;;;;;5090360;28;20295;-65
2022/11/02 14:05:43;;;;;;;;;;;;;;;;;;5091379;28;19958;-66
2022/11/02 14:08:09;;;;;;;;;;;;;;;;;;5084827;28;19912;-66
2022/11/02 14:10:35;;;;;;;;;;;;;;;;;;5092148;28;19927;-66
2022/11/02 14:13:01;;;;;;;;;;;;;;;;;;5092994;28;19904;-66
2022/11/02 14:15:26;;;;;;;;;;;;;;;;;;5074231;28;19965;-66
2022/11/02 14:17:53;;;;;;;;;;;;;;;;;;5073492;28;20264;-66
2022/11/02 14:20:19;;;;;;;;;;;;;;;;;;5073043;28;19998;-66
2022/11/02 14:22:45;;;;;;;;;;;;;;;;;;5091602;28;20379;-66
2022/11/02 14:25:11;;;;;;;;;;;;;;;;;;5092398;28;19999;-66
2022/11/02 14:27:37;;;;;;;;;;;;;;;;;;5073993;28;19904;-66
2022/11/02 14:30:03;;;;;;;;;;;;;;;;;;5092806;28;20363;-66
2022/11/02 14:32:33;;;;;;;;;;;;;;;;;;5093631;28;20275;-66
2022/11/02 14:34:59;;;;;;;;;;;;;;;;;;5093008;28;19908;-66
2022/11/02 14:37:25;;;;;;;;;;;;;;;;;;5093618;28;20279;-66
2022/11/02 14:39:51;;;;;;;;;;;;;;;;;;5074918;28;20006;-66
2022/11/02 14:42:17;;;;;;;;;;;;;;;;;;5095282;28;20276;-66
2022/11/02 14:44:44;;;;;;;;;;;;;;;;;;5097216;28;19911;-65
2022/11/02 14:47:11;;;;;;;;;;;;;;;;;;5096747;28;19990;-66
2022/11/02 14:49:37;;;;;;;;;;;;;;;;;;5079000;28;19904;-66
2022/11/02 14:52:03;;;;;;;;;;;;;;;;;;5097133;28;19904;-65
2022/11/02 14:54:29;;;;;;;;;;;;;;;;;;5095708;28;19978;-66
2022/11/02 14:56:55;;;;;;;;;;;;;;;;;;5093232;28;20377;-65
2022/11/02 14:59:21;;;;;;;;;;;;;;;;;;5076863;28;19966;-66
2022/11/02 15:01:47;;;;;;;;;;;;;;;;;;5094533;28;19911;-66
2022/11/02 15:04:13;;;;;;;;;;;;;;;;;;5094917;28;19915;-66
2022/11/02 15:06:39;;;;;;;;;;;;;;;;;;5094913;28;19957;-66
2022/11/02 15:09:05;;;;;;;;;;;;;;;;;;5094366;28;20364;-66
2022/11/02 15:11:31;;;;;;;;;;;;;;;;;;5076625;28;20307;-66
2022/11/02 15:13:57;;;;;;;;;;;;;;;;;;5095071;28;19904;-66
2022/11/02 15:16:23;;;;;;;;;;;;;;;;;;5094541;28;19919;-66
2022/11/02 15:18:49;;;;;;;;;;;;;;;;;;5095518;28;19904;-66
2022/11/02 15:21:16;;;;;;;;;;;;;;;;;;5096071;28;20314;-65
2022/11/02 15:23:42;;;;;;;;;;;;;;;;;;5096231;28;19908;-65
2022/11/02 15:26:10;;;;;;;;;;;;;;;;;;5096324;28;19927;-67
2022/11/02 15:28:36;;;;;;;;;;;;;;;;;;5096380;28;19904;-65
2022/11/02 15:31:02;;;;;;;;;;;;;;;;;;5096068;28;19914;-65
2022/11/02 15:33:28;;;;;;;;;;;;;;;;;;5096280;28;19994;-66
2022/11/02 15:38:01;;;;;;;;;;;;;;;;;;5111358;27;19916;-65
2022/11/02 15:40:27;;;;;;;;;;;;;;;;;;5110342;28;20002;-66
2022/11/02 15:42:53;;;;;;;;;;;;;;;;;;5111360;28;19908;-65
2022/11/02 15:47:34;;;;;;;;;;;;;;;;;;5131630;27;20377;-65
2022/11/02 15:50:00;;;;;;;;;;;;;;;;;;5131588;28;19957;-65
2022/11/02 15:52:26;;;;;;;;;;;;;;;;;;5130641;28;20024;-66
2022/11/02 15:54:52;;;;;;;;;;;;;;;;;;5131446;28;19996;-65
2022/11/02 15:57:18;;;;;;;;;;;;;;;;;;5130140;28;19908;-65
2022/11/02 15:59:44;;;;;;;;;;;;;;;;;;5128605;28;19914;-66
2022/11/02 16:02:54;;;;;;;;;;;;;;;;;;5110861;27;19916;-66
2022/11/02 16:05:20;;;;;;;;;;;;;;;;;;5110797;28;20283;-67
2022/11/02 16:07:46;;;;;;;;;;;;;;;;;;5111135;28;19912;-66
2022/11/02 16:13:52;;;;;;;;;;;;;;;;;;5112182;27;20384;-67
2022/11/02 16:16:18;;;;;;;;;;;;;;;;;;5111681;28;19955;-65
2022/11/02 16:23:20;;;;;;;;;;;;;;;;;;5091694;28;19916;-65
2022/11/02 16:25:46;;;;;;;;;;;;;;;;;;5090845;28;20447;-65
2022/11/02 16:28:12;;;;;;;;;;;;;;;;;;5091170;28;19915;-65
2022/11/02 16:30:38;;;;;;;;;;;;;;;;;;5091294;28;20007;-65
2022/11/02 16:33:04;;;;;;;;;;;;;;;;;;5090757;28;19916;-65
2022/11/02 16:37:44;;;;;;;;;;;;;;;;;;5112121;27;19922;-66
2022/11/02 16:42:19;;;;;;;;;;;;;;;;;;5174518;27;19911;-67
2022/11/02 16:44:45;;;;;;;;;;;;;;;;;;5155090;27;20001;-66
2022/11/02 16:50:37;;;;;;;;;;;;;;;;;;5112017;27;20025;-67
2022/11/02 16:53:03;;;;;;;;;;;;;;;;;;5112121;28;19998;-65
2022/11/02 16:55:29;;;;;;;;;;;;;;;;;;5111238;28;19908;-67
2022/11/02 16:59:04;;;;;;;;;;;;;;;;;;5111945;27;19912;-65
2022/11/02 17:01:30;;;;;;;;;;;;;;;;;;5111306;28;19912;-65
2022/11/02 17:04:36;;;;;;;;;;;;;;;;;;5091655;27;19916;-65
2022/11/02 17:09:22;;;;;;;;;;;;;;;;;;5091129;27;19917;-66
2022/11/02 17:12:21;;;;;;;;;;;;;;;;;;5111354;27;19916;-65
2022/11/02 17:14:47;;;;;;;;;;;;;;;;;;5111184;28;20003;-65
2022/11/02 17:18:07;;;;;;;;;;;;;;;;;;5111804;27;19923;-65
2022/11/02 17:22:45;;;;;;;;;;;;;;;;;;5091366;27;19935;-66
2022/11/02 17:26:28;;;;;;;;;;;;;;;;;;5091684;27;20376;-66
2022/11/02 17:28:54;;;;;;;;;;;;;;;;;;5089713;28;20007;-65
2022/11/02 17:31:20;;;;;;;;;;;;;;;;;;5091263;28;20258;-65
2022/11/02 17:33:46;;;;;;;;;;;;;;;;;;5089953;28;19908;-65
2022/11/02 17:37:40;;;;;;;;;;;;;;;;;;5111580;27;19923;-65
2022/11/02 17:42:57;;;;;;;;;;;;;;;;;;5112162;27;19916;-67
2022/11/02 17:45:23;;;;;;;;;;;;;;;;;;5111730;28;19950;-67
2022/11/02 17:48:01;;;;;;;;;;;;;;;;;;5111792;27;19923;-65
2022/11/02 17:51:57;;;;;;;;;;;;;;;;;;5091536;27;19916;-65
2022/11/02 17:54:23;;;;;;;;;;;;;;;;;;5091366;28;20440;-65
2022/11/02 17:58:21;;;;;;;;;;;;;;;;;;5091216;27;20304;-67